sensor_id;sensor_type;location;lat;lon;timestamp;P1;durP1;ratioP1;P2;durP2;ratioP2
16900;SDS011;8567;52.540;6.434;2023-07-22T00:02:06;31.75;;;30.15;;
16900;SDS011;8567;52.540;6.434;2023-07-22T00:04:33;31.00;;;29.42;;
16900;SDS011;8567;52.540;6.434;2023-07-22T00:07:00;31.83;;;30.27;;
16900;SDS011;8567;52.540;6.434;2023-07-22T00:09:27;31.17;;;29.58;;
16900;SDS011;8567;52.540;6.434;2023-07-22T00:11:54;31.52;;;29.98;;
16900;SDS011;8567;52.540;6.434;2023-07-22T00:14:22;31.55;;;29.85;;
16900;SDS011;8567;52.540;6.434;2023-07-22T00:16:49;31.83;;;30.27;;
16900;SDS011;8567;52.540;6.434;2023-07-22T00:19:15;31.88;;;30.33;;
16900;SDS011;8567;52.540;6.434;2023-07-22T00:21:42;32.45;;;30.85;;
16900;SDS011;8567;52.540;6.434;2023-07-22T00:24:09;31.98;;;30.40;;
16900;SDS011;8567;52.540;6.434;2023-07-22T00:26:39;31.40;;;29.88;;
16900;SDS011;8567;52.540;6.434;2023-07-22T00:29:07;31.27;;;29.77;;
16900;SDS011;8567;52.540;6.434;2023-07-22T00:31:35;31.05;;;29.55;;
16900;SDS011;8567;52.540;6.434;2023-07-22T00:34:02;30.40;;;28.90;;
16900;SDS011;8567;52.540;6.434;2023-07-22T00:36:29;30.67;;;29.17;;
16900;SDS011;8567;52.540;6.434;2023-07-22T00:38:57;32.33;;;30.73;;
16900;SDS011;8567;52.540;6.434;2023-07-22T00:41:23;30.83;;;29.33;;
16900;SDS011;8567;52.540;6.434;2023-07-22T00:43:51;31.67;;;30.10;;
16900;SDS011;8567;52.540;6.434;2023-07-22T00:46:17;29.88;;;28.42;;
16900;SDS011;8567;52.540;6.434;2023-07-22T00:48:46;29.58;;;28.13;;
16900;SDS011;8567;52.540;6.434;2023-07-22T00:51:14;32.03;;;30.25;;
16900;SDS011;8567;52.540;6.434;2023-07-22T00:53:41;30.80;;;29.25;;
16900;SDS011;8567;52.540;6.434;2023-07-22T00:56:08;30.50;;;29.00;;
16900;SDS011;8567;52.540;6.434;2023-07-22T00:58:35;30.92;;;29.42;;
16900;SDS011;8567;52.540;6.434;2023-07-22T01:01:02;31.08;;;29.55;;
16900;SDS011;8567;52.540;6.434;2023-07-22T01:03:28;32.13;;;30.55;;
16900;SDS011;8567;52.540;6.434;2023-07-22T01:05:57;32.47;;;30.90;;
16900;SDS011;8567;52.540;6.434;2023-07-22T01:08:25;29.83;;;28.38;;
16900;SDS011;8567;52.540;6.434;2023-07-22T01:10:52;31.38;;;29.83;;
16900;SDS011;8567;52.540;6.434;2023-07-22T01:13:19;32.33;;;30.52;;
16900;SDS011;8567;52.540;6.434;2023-07-22T01:15:46;31.17;;;29.65;;
16900;SDS011;8567;52.540;6.434;2023-07-22T01:18:13;32.55;;;30.95;;
16900;SDS011;8567;52.540;6.434;2023-07-22T01:20:40;31.23;;;29.73;;
16900;SDS011;8567;52.540;6.434;2023-07-22T01:23:10;31.13;;;29.63;;
16900;SDS011;8567;52.540;6.434;2023-07-22T01:25:37;30.83;;;29.33;;
16900;SDS011;8567;52.540;6.434;2023-07-22T01:28:08;32.95;;;31.38;;
16900;SDS011;8567;52.540;6.434;2023-07-22T01:30:37;30.73;;;29.23;;
16900;SDS011;8567;52.540;6.434;2023-07-22T01:33:04;30.73;;;29.15;;
16900;SDS011;8567;52.540;6.434;2023-07-22T01:35:31;30.85;;;29.38;;
16900;SDS011;8567;52.540;6.434;2023-07-22T01:37:58;34.90;;;33.20;;
16900;SDS011;8567;52.540;6.434;2023-07-22T01:40:26;31.20;;;29.65;;
16900;SDS011;8567;52.540;6.434;2023-07-22T01:42:53;32.42;;;30.83;;
16900;SDS011;8567;52.540;6.434;2023-07-22T01:45:20;31.02;;;29.52;;
16900;SDS011;8567;52.540;6.434;2023-07-22T01:47:47;32.38;;;30.83;;
16900;SDS011;8567;52.540;6.434;2023-07-22T01:50:14;31.63;;;30.10;;
16900;SDS011;8567;52.540;6.434;2023-07-22T01:52:41;31.10;;;29.60;;
16900;SDS011;8567;52.540;6.434;2023-07-22T01:55:08;32.38;;;30.67;;
16900;SDS011;8567;52.540;6.434;2023-07-22T01:57:37;31.38;;;29.55;;
16900;SDS011;8567;52.540;6.434;2023-07-22T02:00:05;31.08;;;29.58;;
16900;SDS011;8567;52.540;6.434;2023-07-22T02:02:35;33.08;;;31.48;;
16900;SDS011;8567;52.540;6.434;2023-07-22T02:05:03;35.13;;;33.40;;
16900;SDS011;8567;52.540;6.434;2023-07-22T02:07:30;32.40;;;30.83;;
16900;SDS011;8567;52.540;6.434;2023-07-22T02:09:57;34.45;;;32.75;;
16900;SDS011;8567;52.540;6.434;2023-07-22T02:12:24;34.92;;;33.22;;
16900;SDS011;8567;52.540;6.434;2023-07-22T02:14:52;34.83;;;33.13;;
16900;SDS011;8567;52.540;6.434;2023-07-22T02:17:19;34.28;;;32.58;;
16900;SDS011;8567;52.540;6.434;2023-07-22T02:19:46;33.72;;;31.95;;
16900;SDS011;8567;52.540;6.434;2023-07-22T02:22:13;33.05;;;31.35;;
16900;SDS011;8567;52.540;6.434;2023-07-22T02:24:40;33.05;;;31.45;;
16900;SDS011;8567;52.540;6.434;2023-07-22T02:27:07;33.38;;;31.77;;
16900;SDS011;8567;52.540;6.434;2023-07-22T02:29:34;33.33;;;31.63;;
16900;SDS011;8567;52.540;6.434;2023-07-22T02:32:03;32.92;;;31.35;;
16900;SDS011;8567;52.540;6.434;2023-07-22T02:34:30;32.20;;;30.60;;
16900;SDS011;8567;52.540;6.434;2023-07-22T02:36:57;33.53;;;31.88;;
16900;SDS011;8567;52.540;6.434;2023-07-22T02:39:24;33.25;;;31.60;;
16900;SDS011;8567;52.540;6.434;2023-07-22T02:41:51;33.03;;;31.42;;
16900;SDS011;8567;52.540;6.434;2023-07-22T02:44:18;33.00;;;31.40;;
16900;SDS011;8567;52.540;6.434;2023-07-22T02:46:44;33.45;;;31.83;;
16900;SDS011;8567;52.540;6.434;2023-07-22T02:49:13;34.58;;;32.88;;
16900;SDS011;8567;52.540;6.434;2023-07-22T02:51:40;32.55;;;30.95;;
16900;SDS011;8567;52.540;6.434;2023-07-22T02:54:07;32.80;;;31.20;;
16900;SDS011;8567;52.540;6.434;2023-07-22T02:56:34;34.40;;;32.75;;
16900;SDS011;8567;52.540;6.434;2023-07-22T02:59:01;34.10;;;32.40;;
16900;SDS011;8567;52.540;6.434;2023-07-22T03:01:28;32.83;;;31.23;;
16900;SDS011;8567;52.540;6.434;2023-07-22T03:03:55;31.77;;;30.23;;
16900;SDS011;8567;52.540;6.434;2023-07-22T03:06:23;34.15;;;32.47;;
16900;SDS011;8567;52.540;6.434;2023-07-22T03:08:51;33.35;;;31.65;;
16900;SDS011;8567;52.540;6.434;2023-07-22T03:11:19;32.80;;;31.20;;
16900;SDS011;8567;52.540;6.434;2023-07-22T03:13:50;33.10;;;31.50;;
16900;SDS011;8567;52.540;6.434;2023-07-22T03:16:16;33.42;;;31.83;;
16900;SDS011;8567;52.540;6.434;2023-07-22T03:18:43;33.92;;;32.33;;
16900;SDS011;8567;52.540;6.434;2023-07-22T03:21:10;34.90;;;33.22;;
16900;SDS011;8567;52.540;6.434;2023-07-22T03:23:39;34.08;;;32.42;;
16900;SDS011;8567;52.540;6.434;2023-07-22T03:26:06;33.45;;;31.85;;
16900;SDS011;8567;52.540;6.434;2023-07-22T03:28:33;34.22;;;32.55;;
16900;SDS011;8567;52.540;6.434;2023-07-22T03:31:00;34.63;;;32.95;;
16900;SDS011;8567;52.540;6.434;2023-07-22T03:33:27;35.92;;;34.15;;
16900;SDS011;8567;52.540;6.434;2023-07-22T03:35:54;35.45;;;33.75;;
16900;SDS011;8567;52.540;6.434;2023-07-22T03:38:20;34.35;;;32.67;;
16900;SDS011;8567;52.540;6.434;2023-07-22T03:40:49;35.50;;;33.75;;
16900;SDS011;8567;52.540;6.434;2023-07-22T03:43:18;33.78;;;32.15;;
16900;SDS011;8567;52.540;6.434;2023-07-22T03:45:44;35.10;;;33.40;;
16900;SDS011;8567;52.540;6.434;2023-07-22T03:48:12;33.10;;;31.50;;
16900;SDS011;8567;52.540;6.434;2023-07-22T03:50:39;34.67;;;32.97;;
16900;SDS011;8567;52.540;6.434;2023-07-22T03:53:06;36.00;;;34.25;;
16900;SDS011;8567;52.540;6.434;2023-07-22T03:55:32;34.42;;;32.72;;
16900;SDS011;8567;52.540;6.434;2023-07-22T03:58:01;34.08;;;32.45;;
16900;SDS011;8567;52.540;6.434;2023-07-22T04:00:27;35.22;;;33.53;;
16900;SDS011;8567;52.540;6.434;2023-07-22T04:02:54;33.92;;;32.25;;
16900;SDS011;8567;52.540;6.434;2023-07-22T04:05:21;32.83;;;31.23;;
16900;SDS011;8567;52.540;6.434;2023-07-22T04:07:48;34.45;;;32.80;;
16900;SDS011;8567;52.540;6.434;2023-07-22T04:10:15;35.67;;;33.95;;
16900;SDS011;8567;52.540;6.434;2023-07-22T04:12:41;36.70;;;34.90;;
16900;SDS011;8567;52.540;6.434;2023-07-22T04:15:09;35.70;;;33.97;;
16900;SDS011;8567;52.540;6.434;2023-07-22T04:17:38;32.53;;;30.95;;
16900;SDS011;8567;52.540;6.434;2023-07-22T04:20:05;36.40;;;34.60;;
16900;SDS011;8567;52.540;6.434;2023-07-22T04:22:34;34.03;;;32.38;;
16900;SDS011;8567;52.540;6.434;2023-07-22T04:25:01;35.78;;;34.03;;
16900;SDS011;8567;52.540;6.434;2023-07-22T04:27:28;35.00;;;33.30;;
16900;SDS011;8567;52.540;6.434;2023-07-22T04:29:54;36.42;;;34.63;;
16900;SDS011;8567;52.540;6.434;2023-07-22T04:32:23;35.55;;;33.85;;
16900;SDS011;8567;52.540;6.434;2023-07-22T04:34:50;34.65;;;32.97;;
16900;SDS011;8567;52.540;6.434;2023-07-22T04:37:16;35.28;;;33.58;;
16900;SDS011;8567;52.540;6.434;2023-07-22T04:39:46;34.53;;;32.88;;
16900;SDS011;8567;52.540;6.434;2023-07-22T04:42:14;34.45;;;32.80;;
16900;SDS011;8567;52.540;6.434;2023-07-22T04:44:41;35.42;;;33.72;;
16900;SDS011;8567;52.540;6.434;2023-07-22T04:47:09;37.42;;;35.60;;
16900;SDS011;8567;52.540;6.434;2023-07-22T04:49:38;33.97;;;32.30;;
16900;SDS011;8567;52.540;6.434;2023-07-22T04:52:05;36.05;;;34.30;;
16900;SDS011;8567;52.540;6.434;2023-07-22T04:54:33;34.25;;;32.60;;
16900;SDS011;8567;52.540;6.434;2023-07-22T04:57:00;34.28;;;32.60;;
16900;SDS011;8567;52.540;6.434;2023-07-22T04:59:27;34.33;;;32.65;;
16900;SDS011;8567;52.540;6.434;2023-07-22T05:01:54;35.15;;;33.45;;
16900;SDS011;8567;52.540;6.434;2023-07-22T05:04:21;34.30;;;32.65;;
16900;SDS011;8567;52.540;6.434;2023-07-22T05:06:49;34.50;;;32.80;;
16900;SDS011;8567;52.540;6.434;2023-07-22T05:09:16;33.80;;;32.15;;
16900;SDS011;8567;52.540;6.434;2023-07-22T05:11:43;35.05;;;33.35;;
16900;SDS011;8567;52.540;6.434;2023-07-22T05:14:10;35.65;;;33.90;;
16900;SDS011;8567;52.540;6.434;2023-07-22T05:16:37;34.08;;;32.38;;
16900;SDS011;8567;52.540;6.434;2023-07-22T05:19:04;37.22;;;35.42;;
16900;SDS011;8567;52.540;6.434;2023-07-22T05:21:33;34.63;;;32.95;;
16900;SDS011;8567;52.540;6.434;2023-07-22T05:24:01;34.97;;;33.28;;
16900;SDS011;8567;52.540;6.434;2023-07-22T05:26:28;33.58;;;31.98;;
16900;SDS011;8567;52.540;6.434;2023-07-22T05:28:56;33.65;;;32.05;;
16900;SDS011;8567;52.540;6.434;2023-07-22T05:31:22;34.85;;;33.15;;
16900;SDS011;8567;52.540;6.434;2023-07-22T05:33:49;35.35;;;33.63;;
16900;SDS011;8567;52.540;6.434;2023-07-22T05:36:16;33.63;;;32.03;;
16900;SDS011;8567;52.540;6.434;2023-07-22T05:38:43;35.30;;;33.60;;
16900;SDS011;8567;52.540;6.434;2023-07-22T05:41:12;34.83;;;33.15;;
16900;SDS011;8567;52.540;6.434;2023-07-22T05:43:39;33.90;;;32.25;;
16900;SDS011;8567;52.540;6.434;2023-07-22T05:46:06;36.38;;;34.60;;
16900;SDS011;8567;52.540;6.434;2023-07-22T05:48:33;34.38;;;32.72;;
16900;SDS011;8567;52.540;6.434;2023-07-22T05:50:59;32.55;;;30.98;;
16900;SDS011;8567;52.540;6.434;2023-07-22T05:53:26;34.20;;;32.58;;
16900;SDS011;8567;52.540;6.434;2023-07-22T05:55:53;35.42;;;33.72;;
16900;SDS011;8567;52.540;6.434;2023-07-22T05:58:21;35.50;;;33.70;;
16900;SDS011;8567;52.540;6.434;2023-07-22T06:00:48;33.30;;;31.70;;
16900;SDS011;8567;52.540;6.434;2023-07-22T06:03:16;34.10;;;32.47;;
16900;SDS011;8567;52.540;6.434;2023-07-22T06:05:43;35.35;;;33.65;;
16900;SDS011;8567;52.540;6.434;2023-07-22T06:08:10;33.40;;;31.80;;
16900;SDS011;8567;52.540;6.434;2023-07-22T06:10:37;33.35;;;31.73;;
16900;SDS011;8567;52.540;6.434;2023-07-22T06:13:05;34.88;;;33.22;;
16900;SDS011;8567;52.540;6.434;2023-07-22T06:15:34;34.13;;;32.50;;
16900;SDS011;8567;52.540;6.434;2023-07-22T06:18:01;35.00;;;33.30;;
16900;SDS011;8567;52.540;6.434;2023-07-22T06:20:28;33.45;;;31.85;;
16900;SDS011;8567;52.540;6.434;2023-07-22T06:22:56;33.20;;;31.58;;
16900;SDS011;8567;52.540;6.434;2023-07-22T06:25:22;34.45;;;32.78;;
16900;SDS011;8567;52.540;6.434;2023-07-22T06:27:49;34.50;;;32.80;;
16900;SDS011;8567;52.540;6.434;2023-07-22T06:30:19;32.97;;;31.40;;
16900;SDS011;8567;52.540;6.434;2023-07-22T06:32:47;35.47;;;33.78;;
16900;SDS011;8567;52.540;6.434;2023-07-22T06:35:14;33.72;;;32.10;;
16900;SDS011;8567;52.540;6.434;2023-07-22T06:37:41;35.78;;;34.08;;
16900;SDS011;8567;52.540;6.434;2023-07-22T06:40:08;34.10;;;32.50;;
16900;SDS011;8567;52.540;6.434;2023-07-22T06:42:35;33.60;;;32.00;;
16900;SDS011;8567;52.540;6.434;2023-07-22T06:45:02;33.53;;;31.90;;
16900;SDS011;8567;52.540;6.434;2023-07-22T06:47:30;33.17;;;31.58;;
16900;SDS011;8567;52.540;6.434;2023-07-22T06:49:58;34.95;;;33.25;;
16900;SDS011;8567;52.540;6.434;2023-07-22T06:52:25;35.67;;;33.97;;
16900;SDS011;8567;52.540;6.434;2023-07-22T06:54:52;33.10;;;31.50;;
16900;SDS011;8567;52.540;6.434;2023-07-22T06:57:19;34.53;;;32.85;;
16900;SDS011;8567;52.540;6.434;2023-07-22T06:59:46;34.80;;;33.10;;
16900;SDS011;8567;52.540;6.434;2023-07-22T07:02:15;32.78;;;31.20;;
16900;SDS011;8567;52.540;6.434;2023-07-22T07:04:42;34.72;;;33.03;;
16900;SDS011;8567;52.540;6.434;2023-07-22T07:07:11;34.10;;;32.42;;
16900;SDS011;8567;52.540;6.434;2023-07-22T07:09:38;32.47;;;30.88;;
16900;SDS011;8567;52.540;6.434;2023-07-22T07:12:06;33.97;;;32.30;;
16900;SDS011;8567;52.540;6.434;2023-07-22T07:14:33;33.47;;;31.88;;
16900;SDS011;8567;52.540;6.434;2023-07-22T07:17:00;34.05;;;32.42;;
16900;SDS011;8567;52.540;6.434;2023-07-22T07:19:27;34.35;;;32.65;;
16900;SDS011;8567;52.540;6.434;2023-07-22T07:21:54;32.38;;;30.83;;
16900;SDS011;8567;52.540;6.434;2023-07-22T07:24:23;33.58;;;31.98;;
16900;SDS011;8567;52.540;6.434;2023-07-22T07:26:49;33.22;;;31.63;;
16900;SDS011;8567;52.540;6.434;2023-07-22T07:29:16;32.75;;;31.17;;
16900;SDS011;8567;52.540;6.434;2023-07-22T07:31:43;33.53;;;31.92;;
16900;SDS011;8567;52.540;6.434;2023-07-22T07:34:10;33.20;;;31.55;;
16900;SDS011;8567;52.540;6.434;2023-07-22T07:36:37;33.22;;;31.45;;
16900;SDS011;8567;52.540;6.434;2023-07-22T07:39:04;32.80;;;31.00;;
16900;SDS011;8567;52.540;6.434;2023-07-22T07:41:32;31.75;;;30.20;;
16900;SDS011;8567;52.540;6.434;2023-07-22T07:43:59;32.67;;;30.73;;
16900;SDS011;8567;52.540;6.434;2023-07-22T07:46:26;32.63;;;30.90;;
16900;SDS011;8567;52.540;6.434;2023-07-22T07:48:54;32.78;;;30.92;;
16900;SDS011;8567;52.540;6.434;2023-07-22T07:51:23;31.13;;;29.42;;
16900;SDS011;8567;52.540;6.434;2023-07-22T07:53:52;32.05;;;30.38;;
16900;SDS011;8567;52.540;6.434;2023-07-22T07:56:19;32.00;;;30.30;;
16900;SDS011;8567;52.540;6.434;2023-07-22T07:58:48;31.33;;;29.67;;
16900;SDS011;8567;52.540;6.434;2023-07-22T08:01:16;31.45;;;29.75;;
16900;SDS011;8567;52.540;6.434;2023-07-22T08:03:43;30.98;;;29.17;;
16900;SDS011;8567;52.540;6.434;2023-07-22T08:06:11;31.73;;;30.02;;
16900;SDS011;8567;52.540;6.434;2023-07-22T08:08:39;31.60;;;30.00;;
16900;SDS011;8567;52.540;6.434;2023-07-22T08:11:07;32.33;;;30.63;;
16900;SDS011;8567;52.540;6.434;2023-07-22T08:13:34;30.73;;;29.15;;
16900;SDS011;8567;52.540;6.434;2023-07-22T08:16:03;29.38;;;27.88;;
16900;SDS011;8567;52.540;6.434;2023-07-22T08:18:31;31.63;;;30.02;;
16900;SDS011;8567;52.540;6.434;2023-07-22T08:20:59;30.23;;;28.70;;
16900;SDS011;8567;52.540;6.434;2023-07-22T08:23:27;30.33;;;28.80;;
16900;SDS011;8567;52.540;6.434;2023-07-22T08:25:54;30.65;;;29.05;;
16900;SDS011;8567;52.540;6.434;2023-07-22T08:28:21;31.70;;;30.10;;
16900;SDS011;8567;52.540;6.434;2023-07-22T08:30:48;30.10;;;28.63;;
16900;SDS011;8567;52.540;6.434;2023-07-22T08:33:16;30.27;;;28.48;;
16900;SDS011;8567;52.540;6.434;2023-07-22T08:35:43;30.67;;;29.17;;
16900;SDS011;8567;52.540;6.434;2023-07-22T08:38:13;31.85;;;30.20;;
16900;SDS011;8567;52.540;6.434;2023-07-22T08:40:40;32.55;;;30.77;;
16900;SDS011;8567;52.540;6.434;2023-07-22T08:43:08;33.53;;;31.83;;
16900;SDS011;8567;52.540;6.434;2023-07-22T08:45:36;35.13;;;33.33;;
16900;SDS011;8567;52.540;6.434;2023-07-22T08:48:05;33.78;;;32.10;;
16900;SDS011;8567;52.540;6.434;2023-07-22T08:50:37;33.00;;;31.27;;
16900;SDS011;8567;52.540;6.434;2023-07-22T08:53:10;36.25;;;34.13;;
16900;SDS011;8567;52.540;6.434;2023-07-22T08:55:39;35.60;;;33.83;;
16900;SDS011;8567;52.540;6.434;2023-07-22T08:58:06;33.25;;;31.60;;
16900;SDS011;8567;52.540;6.434;2023-07-22T09:00:34;33.83;;;32.13;;
16900;SDS011;8567;52.540;6.434;2023-07-22T09:03:01;34.60;;;32.90;;
16900;SDS011;8567;52.540;6.434;2023-07-22T09:05:30;32.33;;;30.63;;
16900;SDS011;8567;52.540;6.434;2023-07-22T09:07:59;35.13;;;33.30;;
16900;SDS011;8567;52.540;6.434;2023-07-22T09:10:29;34.58;;;32.83;;
16900;SDS011;8567;52.540;6.434;2023-07-22T09:12:56;32.95;;;31.27;;
16900;SDS011;8567;52.540;6.434;2023-07-22T09:15:24;34.03;;;32.22;;
16900;SDS011;8567;52.540;6.434;2023-07-22T09:17:52;34.83;;;32.95;;
16900;SDS011;8567;52.540;6.434;2023-07-22T09:20:19;35.78;;;33.97;;
16900;SDS011;8567;52.540;6.434;2023-07-22T09:22:48;37.03;;;34.65;;
16900;SDS011;8567;52.540;6.434;2023-07-22T09:25:18;34.95;;;33.17;;
16900;SDS011;8567;52.540;6.434;2023-07-22T09:27:46;34.67;;;32.92;;
16900;SDS011;8567;52.540;6.434;2023-07-22T09:30:23;33.50;;;31.77;;
16900;SDS011;8567;52.540;6.434;2023-07-22T09:32:52;35.75;;;33.90;;
16900;SDS011;8567;52.540;6.434;2023-07-22T09:35:20;34.63;;;32.92;;
16900;SDS011;8567;52.540;6.434;2023-07-22T09:37:47;34.53;;;32.72;;
16900;SDS011;8567;52.540;6.434;2023-07-22T09:40:16;31.52;;;29.95;;
16900;SDS011;8567;52.540;6.434;2023-07-22T09:42:46;32.35;;;30.55;;
16900;SDS011;8567;52.540;6.434;2023-07-22T09:45:13;32.15;;;30.55;;
16900;SDS011;8567;52.540;6.434;2023-07-22T09:47:41;33.33;;;31.63;;
16900;SDS011;8567;52.540;6.434;2023-07-22T09:50:10;34.15;;;32.40;;
16900;SDS011;8567;52.540;6.434;2023-07-22T09:52:45;32.42;;;30.73;;
16900;SDS011;8567;52.540;6.434;2023-07-22T09:55:14;31.85;;;30.30;;
16900;SDS011;8567;52.540;6.434;2023-07-22T09:57:43;33.13;;;31.50;;
16900;SDS011;8567;52.540;6.434;2023-07-22T10:00:12;31.65;;;29.95;;
16900;SDS011;8567;52.540;6.434;2023-07-22T10:02:41;32.90;;;31.20;;
16900;SDS011;8567;52.540;6.434;2023-07-22T10:05:11;33.70;;;31.90;;
16900;SDS011;8567;52.540;6.434;2023-07-22T10:07:42;31.98;;;30.30;;
16900;SDS011;8567;52.540;6.434;2023-07-22T10:10:11;32.80;;;31.02;;
16900;SDS011;8567;52.540;6.434;2023-07-22T10:12:39;33.03;;;31.33;;
16900;SDS011;8567;52.540;6.434;2023-07-22T10:15:09;33.05;;;31.35;;
16900;SDS011;8567;52.540;6.434;2023-07-22T10:17:37;31.10;;;29.50;;
16900;SDS011;8567;52.540;6.434;2023-07-22T10:20:05;30.73;;;29.23;;
16900;SDS011;8567;52.540;6.434;2023-07-22T10:22:35;30.65;;;29.10;;
16900;SDS011;8567;52.540;6.434;2023-07-22T10:25:04;29.77;;;28.25;;
16900;SDS011;8567;52.540;6.434;2023-07-22T10:27:32;30.33;;;28.73;;
16900;SDS011;8567;52.540;6.434;2023-07-22T10:30:00;29.77;;;28.27;;
16900;SDS011;8567;52.540;6.434;2023-07-22T10:32:33;30.50;;;28.98;;
16900;SDS011;8567;52.540;6.434;2023-07-22T10:35:01;28.50;;;27.05;;
16900;SDS011;8567;52.540;6.434;2023-07-22T10:37:30;30.88;;;29.27;;
16900;SDS011;8567;52.540;6.434;2023-07-22T10:40:01;30.13;;;28.60;;
16900;SDS011;8567;52.540;6.434;2023-07-22T10:42:43;29.35;;;27.60;;
16900;SDS011;8567;52.540;6.434;2023-07-22T10:45:24;28.73;;;27.15;;
16900;SDS011;8567;52.540;6.434;2023-07-22T10:48:01;29.30;;;27.55;;
16900;SDS011;8567;52.540;6.434;2023-07-22T10:50:39;29.48;;;28.00;;
16900;SDS011;8567;52.540;6.434;2023-07-22T10:53:09;29.42;;;27.95;;
16900;SDS011;8567;52.540;6.434;2023-07-22T10:58:32;29.83;;;28.33;;
16900;SDS011;8567;52.540;6.434;2023-07-22T11:01:21;35.63;;;33.72;;
16900;SDS011;8567;52.540;6.434;2023-07-22T11:04:07;35.03;;;33.20;;
16900;SDS011;8567;52.540;6.434;2023-07-22T11:06:36;30.27;;;28.58;;
16900;SDS011;8567;52.540;6.434;2023-07-22T11:09:04;31.23;;;29.63;;
16900;SDS011;8567;52.540;6.434;2023-07-22T11:11:35;32.60;;;30.90;;
16900;SDS011;8567;52.540;6.434;2023-07-22T11:14:13;30.27;;;28.50;;
16900;SDS011;8567;52.540;6.434;2023-07-22T11:16:41;30.67;;;29.13;;
16900;SDS011;8567;52.540;6.434;2023-07-22T11:19:12;30.98;;;29.40;;
16900;SDS011;8567;52.540;6.434;2023-07-22T11:21:39;30.90;;;29.20;;
16900;SDS011;8567;52.540;6.434;2023-07-22T11:24:06;31.88;;;30.27;;
16900;SDS011;8567;52.540;6.434;2023-07-22T11:26:33;32.35;;;30.75;;
16900;SDS011;8567;52.540;6.434;2023-07-22T11:29:01;31.70;;;30.08;;
16900;SDS011;8567;52.540;6.434;2023-07-22T11:31:32;31.83;;;30.15;;
16900;SDS011;8567;52.540;6.434;2023-07-22T11:33:59;31.48;;;29.92;;
16900;SDS011;8567;52.540;6.434;2023-07-22T11:36:27;33.03;;;31.35;;
16900;SDS011;8567;52.540;6.434;2023-07-22T11:39:01;33.60;;;31.88;;
16900;SDS011;8567;52.540;6.434;2023-07-22T11:41:29;32.85;;;30.55;;
16900;SDS011;8567;52.540;6.434;2023-07-22T11:43:56;34.05;;;32.20;;
16900;SDS011;8567;52.540;6.434;2023-07-22T11:46:23;33.85;;;32.08;;
16900;SDS011;8567;52.540;6.434;2023-07-22T11:48:50;32.72;;;31.10;;
16900;SDS011;8567;52.540;6.434;2023-07-22T11:51:19;33.67;;;31.88;;
16900;SDS011;8567;52.540;6.434;2023-07-22T11:53:48;34.30;;;32.50;;
16900;SDS011;8567;52.540;6.434;2023-07-22T11:56:20;34.35;;;32.40;;
16900;SDS011;8567;52.540;6.434;2023-07-22T11:58:48;34.70;;;32.90;;
16900;SDS011;8567;52.540;6.434;2023-07-22T12:01:16;34.65;;;32.92;;
16900;SDS011;8567;52.540;6.434;2023-07-22T12:03:43;33.55;;;31.92;;
16900;SDS011;8567;52.540;6.434;2023-07-22T12:06:10;32.97;;;31.27;;
16900;SDS011;8567;52.540;6.434;2023-07-22T12:08:42;32.53;;;30.88;;
16900;SDS011;8567;52.540;6.434;2023-07-22T12:11:17;34.20;;;32.50;;
16900;SDS011;8567;52.540;6.434;2023-07-22T12:13:44;33.70;;;32.03;;
16900;SDS011;8567;52.540;6.434;2023-07-22T12:16:20;34.78;;;32.88;;
16900;SDS011;8567;52.540;6.434;2023-07-22T12:18:49;36.03;;;33.58;;
16900;SDS011;8567;52.540;6.434;2023-07-22T12:21:15;36.25;;;34.35;;
16900;SDS011;8567;52.540;6.434;2023-07-22T12:23:42;34.05;;;32.38;;
16900;SDS011;8567;52.540;6.434;2023-07-22T12:26:09;34.80;;;33.08;;
16900;SDS011;8567;52.540;6.434;2023-07-22T12:28:38;33.83;;;32.08;;
16900;SDS011;8567;52.540;6.434;2023-07-22T12:31:04;32.80;;;31.20;;
16900;SDS011;8567;52.540;6.434;2023-07-22T12:33:31;33.08;;;31.30;;
16900;SDS011;8567;52.540;6.434;2023-07-22T12:35:58;34.53;;;32.75;;
16900;SDS011;8567;52.540;6.434;2023-07-22T12:38:25;34.92;;;33.22;;
16900;SDS011;8567;52.540;6.434;2023-07-22T12:40:52;35.22;;;33.47;;
16900;SDS011;8567;52.540;6.434;2023-07-22T12:43:19;34.15;;;32.45;;
16900;SDS011;8567;52.540;6.434;2023-07-22T12:45:47;35.38;;;33.50;;
16900;SDS011;8567;52.540;6.434;2023-07-22T12:48:15;34.42;;;32.70;;
16900;SDS011;8567;52.540;6.434;2023-07-22T12:50:42;34.90;;;33.15;;
16900;SDS011;8567;52.540;6.434;2023-07-22T12:53:09;32.65;;;30.95;;
16900;SDS011;8567;52.540;6.434;2023-07-22T12:55:36;33.63;;;31.73;;
16900;SDS011;8567;52.540;6.434;2023-07-22T12:58:03;31.05;;;29.55;;
16900;SDS011;8567;52.540;6.434;2023-07-22T13:00:29;30.63;;;29.13;;
16900;SDS011;8567;52.540;6.434;2023-07-22T13:02:58;29.58;;;27.98;;
16900;SDS011;8567;52.540;6.434;2023-07-22T13:05:25;29.75;;;28.25;;
16900;SDS011;8567;52.540;6.434;2023-07-22T13:07:51;27.73;;;26.33;;
16900;SDS011;8567;52.540;6.434;2023-07-22T13:10:19;28.58;;;27.00;;
16900;SDS011;8567;52.540;6.434;2023-07-22T13:12:47;26.23;;;24.92;;
16900;SDS011;8567;52.540;6.434;2023-07-22T13:15:14;24.67;;;23.48;;
16900;SDS011;8567;52.540;6.434;2023-07-22T13:17:41;23.50;;;22.33;;
16900;SDS011;8567;52.540;6.434;2023-07-22T13:20:09;21.90;;;20.70;;
16900;SDS011;8567;52.540;6.434;2023-07-22T13:22:37;21.95;;;20.85;;
16900;SDS011;8567;52.540;6.434;2023-07-22T13:25:04;21.70;;;20.65;;
16900;SDS011;8567;52.540;6.434;2023-07-22T13:27:31;22.60;;;21.50;;
16900;SDS011;8567;52.540;6.434;2023-07-22T13:29:58;20.50;;;19.50;;
16900;SDS011;8567;52.540;6.434;2023-07-22T13:32:26;18.92;;;18.02;;
16900;SDS011;8567;52.540;6.434;2023-07-22T13:34:53;17.90;;;17.00;;
16900;SDS011;8567;52.540;6.434;2023-07-22T13:37:21;19.38;;;18.38;;
16900;SDS011;8567;52.540;6.434;2023-07-22T13:39:48;18.98;;;18.08;;
16900;SDS011;8567;52.540;6.434;2023-07-22T13:42:15;16.42;;;15.57;;
16900;SDS011;8567;52.540;6.434;2023-07-22T13:44:41;16.23;;;15.43;;
16900;SDS011;8567;52.540;6.434;2023-07-22T13:47:08;16.55;;;15.75;;
16900;SDS011;8567;52.540;6.434;2023-07-22T13:49:35;15.05;;;14.32;;
16900;SDS011;8567;52.540;6.434;2023-07-22T13:52:02;14.93;;;14.10;;
16900;SDS011;8567;52.540;6.434;2023-07-22T13:54:31;14.85;;;14.05;;
16900;SDS011;8567;52.540;6.434;2023-07-22T13:56:58;13.10;;;12.30;;
16900;SDS011;8567;52.540;6.434;2023-07-22T13:59:24;11.60;;;11.00;;
16900;SDS011;8567;52.540;6.434;2023-07-22T14:01:51;9.38;;;8.95;;
16900;SDS011;8567;52.540;6.434;2023-07-22T14:04:18;8.73;;;8.23;;
16900;SDS011;8567;52.540;6.434;2023-07-22T14:06:45;9.50;;;9.00;;
16900;SDS011;8567;52.540;6.434;2023-07-22T14:09:12;9.23;;;8.77;;
16900;SDS011;8567;52.540;6.434;2023-07-22T14:11:40;10.07;;;9.52;;
16900;SDS011;8567;52.540;6.434;2023-07-22T14:14:07;10.93;;;10.20;;
16900;SDS011;8567;52.540;6.434;2023-07-22T14:16:33;9.20;;;8.70;;
16900;SDS011;8567;52.540;6.434;2023-07-22T14:19:00;9.35;;;8.85;;
16900;SDS011;8567;52.540;6.434;2023-07-22T14:21:27;9.50;;;8.93;;
16900;SDS011;8567;52.540;6.434;2023-07-22T14:23:54;9.60;;;8.88;;
16900;SDS011;8567;52.540;6.434;2023-07-22T14:26:21;10.60;;;9.90;;
16900;SDS011;8567;52.540;6.434;2023-07-22T14:28:49;10.00;;;9.50;;
16900;SDS011;8567;52.540;6.434;2023-07-22T14:31:17;11.15;;;10.65;;
16900;SDS011;8567;52.540;6.434;2023-07-22T14:33:43;11.30;;;10.70;;
16900;SDS011;8567;52.540;6.434;2023-07-22T14:36:10;12.00;;;11.40;;
16900;SDS011;8567;52.540;6.434;2023-07-22T14:38:38;11.88;;;11.27;;
16900;SDS011;8567;52.540;6.434;2023-07-22T14:41:05;11.68;;;11.07;;
16900;SDS011;8567;52.540;6.434;2023-07-22T14:43:32;12.45;;;11.85;;